Time;durP1;ratioP1;P1;durP2;ratioP2;P2;SDS_P1;SDS_P2;PMS_P1;PMS_P2;Temp;Humidity;BMP_temperature;BMP_pressure;BME280_temperature;BME280_humidity;BME280_pressure;Samples;Min_cycle;Max_cycle;Signal;HPM_P1;HPM_P2
2022/12/02 00:02:30;;;;;;;51.28;23.75;;;6.80;84.00;;;;;;5073953;28;20028;-33
2022/12/02 00:05:23;;;;;;;53.65;23.92;;;6.80;84.00;;;;;;5073494;28;20025;-33
2022/12/02 00:07:48;;;;;;;54.33;22.83;;;6.80;83.90;;;;;;5073800;28;20353;-34
2022/12/02 00:10:29;;;;;;;52.50;23.17;;;6.80;83.90;;;;;;5073914;28;20023;-34
2022/12/02 00:13:04;;;;;;;50.60;24.52;;;6.80;84.40;;;;;;5073306;28;20037;-34
2022/12/02 00:15:42;;;;;;;52.60;24.08;;;6.80;83.70;;;;;;5073421;28;20027;-33
2022/12/02 00:18:09;;;;;;;51.45;23.85;;;6.70;83.60;;;;;;5073329;28;20461;-35
2022/12/02 00:20:35;;;;;;;48.50;22.58;;;6.70;83.70;;;;;;5073327;28;20021;-35
2022/12/02 00:23:01;;;;;;;46.67;21.15;;;6.60;83.60;;;;;;5073101;28;20040;-33
2022/12/02 00:25:27;;;;;;;45.72;22.60;;;6.60;83.70;;;;;;5073209;28;20457;-34
2022/12/02 00:27:52;;;;;;;47.47;22.27;;;6.60;83.50;;;;;;5073181;28;20353;-36
2022/12/02 00:30:18;;;;;;;43.35;19.98;;;6.60;83.50;;;;;;5073398;28;20106;-36
2022/12/02 00:32:44;;;;;;;45.85;21.63;;;6.60;83.40;;;;;;5072990;28;20031;-34
2022/12/02 00:35:09;;;;;;;44.53;21.13;;;6.60;83.30;;;;;;5073131;28;20024;-35
2022/12/02 00:37:35;;;;;;;42.97;21.42;;;6.60;83.40;;;;;;5072842;28;20031;-32
2022/12/02 00:40:00;;;;;;;43.97;20.95;;;6.50;83.30;;;;;;5073109;28;20239;-32
2022/12/02 00:42:26;;;;;;;40.13;20.33;;;6.60;83.30;;;;;;5073037;28;20105;-36
2022/12/02 00:47:36;;;;;;;47.58;21.50;;;6.60;83.20;;;;;;5073193;28;20456;-35
2022/12/02 00:50:01;;;;;;;43.40;21.30;;;6.60;83.00;;;;;;5072859;28;20028;-35
2022/12/02 00:52:27;;;;;;;43.58;20.48;;;6.60;83.00;;;;;;5072852;28;20031;-34
2022/12/02 00:54:52;;;;;;;41.67;21.00;;;6.60;83.00;;;;;;5072986;28;20017;-35
2022/12/02 00:57:18;;;;;;;42.80;21.30;;;6.60;83.00;;;;;;5072705;28;20048;-33
2022/12/02 00:59:44;;;;;;;40.67;20.17;;;6.50;83.00;;;;;;5072760;28;20444;-35
2022/12/02 01:02:09;;;;;;;43.53;21.55;;;6.60;83.10;;;;;;5072722;28;20512;-34
2022/12/02 01:04:35;;;;;;;40.80;20.17;;;6.60;83.00;;;;;;5072823;28;20353;-34
2022/12/02 01:07:00;;;;;;;42.47;21.02;;;6.60;82.90;;;;;;5072643;28;20464;-36
2022/12/02 01:09:26;;;;;;;39.78;20.02;;;6.60;82.70;;;;;;5072420;28;20028;-34
2022/12/02 01:11:51;;;;;;;43.95;20.40;;;6.70;82.70;;;;;;5072487;28;20033;-33
2022/12/02 01:14:17;;;;;;;41.20;20.75;;;6.60;82.60;;;;;;5072208;28;20032;-34
2022/12/02 01:16:42;;;;;;;40.40;20.38;;;6.60;82.60;;;;;;5072487;28;20483;-33
2022/12/02 01:19:08;;;;;;;43.95;21.80;;;6.60;83.30;;;;;;5072127;28;20101;-34
2022/12/02 01:21:34;;;;;;;42.80;20.75;;;6.60;82.50;;;;;;5072578;28;20456;-33
2022/12/02 01:24:00;;;;;;;43.28;20.35;;;6.60;82.50;;;;;;5072252;28;20052;-34
2022/12/02 01:26:26;;;;;;;40.33;19.85;;;6.60;82.50;;;;;;5072443;28;20104;-42
2022/12/02 01:28:51;;;;;;;42.35;20.25;;;6.50;82.50;;;;;;5072353;28;20478;-34
2022/12/02 01:31:17;;;;;;;39.30;20.35;;;6.50;82.50;;;;;;5072428;28;20502;-41
2022/12/02 01:33:42;;;;;;;41.92;20.40;;;6.50;82.50;;;;;;5054346;28;20033;-36
2022/12/02 01:36:08;;;;;;;44.20;20.65;;;6.50;82.60;;;;;;5072218;28;20111;-34
2022/12/02 01:38:34;;;;;;;41.33;20.08;;;6.50;82.40;;;;;;5072138;28;20028;-33
2022/12/02 01:41:00;;;;;;;40.92;19.77;;;6.50;82.40;;;;;;5054061;28;20077;-34
2022/12/02 01:43:26;;;;;;;40.22;20.55;;;6.50;82.40;;;;;;5072014;28;20039;-33
2022/12/02 01:45:53;;;;;;;40.83;20.63;;;6.50;82.40;;;;;;5072311;28;20013;-34
2022/12/02 01:48:19;;;;;;;39.60;20.40;;;6.50;82.30;;;;;;5072056;28;20024;-42
2022/12/02 01:50:46;;;;;;;39.60;19.25;;;6.50;82.30;;;;;;5072105;28;20460;-32
2022/12/02 01:53:12;;;;;;;39.35;20.10;;;6.50;82.30;;;;;;5072213;28;20020;-33
2022/12/02 01:55:37;;;;;;;43.45;20.25;;;6.50;82.30;;;;;;5071903;28;20181;-33
2022/12/02 01:58:03;;;;;;;43.92;20.63;;;6.50;82.30;;;;;;5071814;28;20025;-35
2022/12/02 02:00:30;;;;;;;41.45;20.30;;;6.50;82.30;;;;;;5072171;28;20106;-34
2022/12/02 02:02:56;;;;;;;38.92;19.42;;;6.40;82.30;;;;;;5072045;28;20483;-33
2022/12/02 02:05:25;;;;;;;43.70;19.90;;;6.50;82.30;;;;;;5071849;28;20025;-35
2022/12/02 02:07:53;;;;;;;39.20;19.55;;;6.40;82.10;;;;;;5072130;28;20044;-36
2022/12/02 02:10:21;;;;;;;44.65;20.08;;;6.50;82.20;;;;;;5071888;28;20028;-34
2022/12/02 02:12:47;;;;;;;38.95;18.52;;;6.40;82.10;;;;;;5053692;28;20396;-34
2022/12/02 02:15:14;;;;;;;40.25;18.40;;;6.40;82.10;;;;;;5071729;28;20056;-34
2022/12/02 02:17:40;;;;;;;36.05;18.50;;;6.30;82.10;;;;;;5072882;28;20035;-35
2022/12/02 02:20:09;;;;;;;38.45;19.83;;;6.30;82.10;;;;;;5075738;28;20020;-34
2022/12/02 02:22:40;;;;;;;38.35;18.50;;;6.30;82.10;;;;;;5075992;28;20017;-34
2022/12/02 02:25:24;;;;;;;38.42;19.50;;;6.30;82.10;;;;;;5075641;28;20591;-34
2022/12/02 02:27:52;;;;;;;35.35;17.48;;;6.30;82.10;;;;;;5075488;28;20039;-35
2022/12/02 02:30:19;;;;;;;38.70;18.42;;;6.30;82.10;;;;;;5075516;28;20025;-34
2022/12/02 02:32:45;;;;;;;38.38;18.48;;;6.30;82.10;;;;;;5075330;28;20029;-34
2022/12/02 02:35:10;;;;;;;40.80;18.60;;;6.30;82.10;;;;;;5075364;28;20032;-35
2022/12/02 02:37:36;;;;;;;33.83;16.88;;;6.30;82.10;;;;;;5075227;28;20029;-34
2022/12/02 02:40:03;;;;;;;36.10;17.00;;;6.30;82.00;;;;;;5075494;28;20664;-36
2022/12/02 02:42:29;;;;;;;37.58;17.88;;;6.30;82.00;;;;;;5075396;28;20032;-35
2022/12/02 02:44:55;;;;;;;37.65;18.00;;;6.30;82.00;;;;;;5075192;28;20479;-33
2022/12/02 02:47:21;;;;;;;37.53;17.98;;;6.30;82.00;;;;;;5075221;28;20029;-34
2022/12/02 02:49:47;;;;;;;34.85;17.27;;;6.20;82.00;;;;;;5074977;28;20035;-33
2022/12/02 02:52:12;;;;;;;34.58;16.15;;;6.20;82.10;;;;;;5074835;28;20035;-33
2022/12/02 02:54:38;;;;;;;35.25;17.30;;;6.20;82.00;;;;;;5056893;28;20068;-37
2022/12/02 02:57:04;;;;;;;37.30;17.63;;;6.20;82.10;;;;;;5074846;28;20029;-34
2022/12/02 02:59:29;;;;;;;37.38;16.80;;;6.20;82.10;;;;;;5074830;28;20032;-36
2022/12/02 03:01:55;;;;;;;34.10;16.20;;;6.20;82.00;;;;;;5074743;28;20025;-33
2022/12/02 03:04:23;;;;;;;40.03;16.38;;;6.10;81.80;;;;;;5074239;28;20024;-35
2022/12/02 03:06:49;;;;;;;35.75;16.65;;;6.10;81.80;;;;;;5074265;28;20479;-39
2022/12/02 03:09:18;;;;;;;32.83;16.13;;;6.10;81.90;;;;;;5074222;28;20108;-41
2022/12/02 03:11:46;;;;;;;35.78;16.35;;;6.00;81.90;;;;;;5074087;28;20090;-32
2022/12/02 03:14:14;;;;;;;36.03;16.45;;;6.00;81.90;;;;;;5074009;28;20044;-36
2022/12/02 03:16:40;;;;;;;32.70;15.48;;;6.00;81.90;;;;;;5056065;28;20052;-36
2022/12/02 03:19:06;;;;;;;34.60;15.10;;;6.00;81.80;;;;;;5073691;28;20059;-36
2022/12/02 03:21:33;;;;;;;34.80;15.45;;;6.00;81.80;;;;;;5073898;28;20036;-43
2022/12/02 03:24:02;;;;;;;37.25;16.10;;;6.00;81.90;;;;;;5073811;28;20029;-40
2022/12/02 03:26:28;;;;;;;36.13;15.93;;;6.00;81.70;;;;;;5073683;28;20040;-35
2022/12/02 03:28:55;;;;;;;34.78;15.60;;;6.00;81.60;;;;;;5072648;28;20085;-36
2022/12/02 03:31:21;;;;;;;33.20;14.68;;;5.90;81.70;;;;;;5073562;28;20083;-34
2022/12/02 03:33:48;;;;;;;33.33;14.90;;;5.90;81.90;;;;;;5073628;28;20046;-32
2022/12/02 03:36:14;;;;;;;31.27;14.80;;;6.00;81.90;;;;;;5073618;28;20036;-32
2022/12/02 03:38:40;;;;;;;33.03;15.10;;;6.00;81.80;;;;;;5073496;28;20028;-36
2022/12/02 03:41:06;;;;;;;35.28;16.23;;;6.00;81.80;;;;;;5073411;28;20475;-33
2022/12/02 03:43:32;;;;;;;31.77;14.27;;;6.00;81.60;;;;;;5073580;28;20535;-33
2022/12/02 03:45:59;;;;;;;33.80;14.30;;;5.90;81.60;;;;;;5055370;28;20124;-34
2022/12/02 03:48:26;;;;;;;31.20;14.65;;;5.90;81.70;;;;;;5073484;28;20041;-33
2022/12/02 03:50:52;;;;;;;30.40;13.90;;;6.00;81.80;;;;;;5073286;28;20034;-34
2022/12/02 03:53:19;;;;;;;31.65;15.20;;;6.00;81.70;;;;;;5073321;28;20028;-34
2022/12/02 03:55:46;;;;;;;38.10;15.90;;;5.90;81.60;;;;;;5073426;28;20117;-32
2022/12/02 03:58:12;;;;;;;33.45;16.23;;;5.90;81.50;;;;;;5073261;28;20412;-36
2022/12/02 04:00:37;;;;;;;40.33;17.23;;;5.90;81.50;;;;;;5073144;28;20028;-32
2022/12/02 04:03:04;;;;;;;34.72;16.08;;;5.90;81.60;;;;;;5073156;28;20097;-32
2022/12/02 04:05:31;;;;;;;37.13;16.52;;;5.80;81.40;;;;;;5073039;28;20569;-34
2022/12/02 04:07:56;;;;;;;31.88;15.25;;;5.80;81.50;;;;;;5073437;28;20028;-34
2022/12/02 04:10:22;;;;;;;35.95;16.90;;;5.80;81.60;;;;;;5073588;28;20507;-34
2022/12/02 04:12:48;;;;;;;34.75;15.88;;;5.80;81.40;;;;;;5073317;28;20127;-33
2022/12/02 04:15:14;;;;;;;36.35;15.73;;;5.70;81.40;;;;;;5073457;28;20114;-33
2022/12/02 04:17:39;;;;;;;34.15;15.18;;;5.70;81.50;;;;;;5073300;28;20028;-34
2022/12/02 04:20:06;;;;;;;31.67;14.60;;;5.60;81.60;;;;;;5073284;28;20586;-33
2022/12/02 04:22:32;;;;;;;31.00;13.75;;;5.60;81.60;;;;;;5073402;28;20038;-36
2022/12/02 04:24:58;;;;;;;29.52;14.52;;;5.70;81.70;;;;;;5073102;28;20016;-33
2022/12/02 04:27:24;;;;;;;30.05;13.65;;;5.60;81.60;;;;;;5073250;28;20025;-34
2022/12/02 04:29:50;;;;;;;34.55;14.27;;;5.70;81.80;;;;;;5073321;28;20082;-34
2022/12/02 04:32:16;;;;;;;28.60;12.88;;;5.60;81.70;;;;;;5055239;28;20033;-33
2022/12/02 04:34:42;;;;;;;29.13;13.65;;;5.60;81.60;;;;;;5073284;28;20029;-33
2022/12/02 04:37:07;;;;;;;29.38;12.38;;;5.60;81.70;;;;;;5055093;28;20494;-32
2022/12/02 04:39:34;;;;;;;24.10;11.52;;;5.60;81.70;;;;;;5072826;28;20120;-33
2022/12/02 04:41:59;;;;;;;27.58;12.15;;;5.60;81.80;;;;;;5072713;28;20033;-34
2022/12/02 04:44:25;;;;;;;23.10;10.90;;;5.60;81.70;;;;;;5073042;28;20046;-33
2022/12/02 04:46:51;;;;;;;28.95;12.98;;;5.60;81.60;;;;;;5072888;28;20578;-36
2022/12/02 04:49:16;;;;;;;21.98;11.02;;;5.60;81.60;;;;;;5072653;28;20033;-33
2022/12/02 04:51:42;;;;;;;23.48;11.60;;;5.60;81.60;;;;;;5072654;28;20025;-34
2022/12/02 04:54:07;;;;;;;30.25;12.63;;;5.60;81.60;;;;;;5072618;28;20036;-32
2022/12/02 04:56:33;;;;;;;22.23;10.93;;;5.50;81.40;;;;;;5072555;28;20501;-33
2022/12/02 04:58:59;;;;;;;26.08;12.55;;;5.50;81.50;;;;;;5072515;28;20033;-34
2022/12/02 05:01:25;;;;;;;22.92;11.13;;;5.50;81.60;;;;;;5072403;28;20035;-36
2022/12/02 05:03:50;;;;;;;23.75;11.88;;;5.50;81.60;;;;;;5072476;28;20032;-34
2022/12/02 05:06:16;;;;;;;22.83;11.68;;;5.50;81.60;;;;;;5072662;28;20484;-33
2022/12/02 05:08:42;;;;;;;22.08;10.70;;;5.50;81.40;;;;;;5072522;28;20086;-33
2022/12/02 05:11:07;;;;;;;22.38;10.90;;;5.50;81.40;;;;;;5054359;28;20090;-34
2022/12/02 05:13:33;;;;;;;21.92;11.05;;;5.50;81.50;;;;;;5072353;28;20044;-34
2022/12/02 05:15:58;;;;;;;22.17;10.75;;;5.60;81.50;;;;;;5054389;28;20027;-33
2022/12/02 05:18:24;;;;;;;22.85;11.10;;;5.60;81.40;;;;;;5072492;28;20029;-33
2022/12/02 05:20:50;;;;;;;24.85;11.45;;;5.60;81.40;;;;;;5072471;28;20099;-34
2022/12/02 05:23:15;;;;;;;21.55;11.13;;;5.60;81.30;;;;;;5072378;28;20472;-34
2022/12/02 05:25:41;;;;;;;22.85;11.70;;;5.60;81.20;;;;;;5054472;28;20043;-34
2022/12/02 05:28:06;;;;;;;23.70;11.55;;;5.50;81.10;;;;;;5072538;28;20596;-34
2022/12/02 05:30:32;;;;;;;23.88;11.07;;;5.50;81.00;;;;;;5072406;28;20024;-34
2022/12/02 05:32:57;;;;;;;26.73;12.52;;;5.50;80.90;;;;;;5072321;28;20035;-34
2022/12/02 05:35:23;;;;;;;23.90;11.55;;;5.50;81.00;;;;;;5072441;28;20040;-33
2022/12/02 05:37:49;;;;;;;25.40;11.88;;;5.40;81.10;;;;;;5072110;28;20030;-34
2022/12/02 05:40:14;;;;;;;22.85;11.57;;;5.40;81.10;;;;;;5054165;28;20071;-33
2022/12/02 05:42:41;;;;;;;22.27;10.82;;;5.40;81.10;;;;;;5072182;28;20039;-34
2022/12/02 05:45:15;;;;;;;25.17;12.05;;;5.40;81.20;;;;;;5072060;28;20028;-33
2022/12/02 05:47:41;;;;;;;21.10;10.35;;;5.40;81.20;;;;;;5072101;28;20388;-34
2022/12/02 05:50:12;;;;;;;24.48;10.77;;;5.40;81.20;;;;;;5071778;28;20032;-33
2022/12/02 05:52:38;;;;;;;26.17;12.32;;;5.40;81.10;;;;;;5073297;28;20035;-36
2022/12/02 05:55:18;;;;;;;27.38;13.63;;;5.40;81.00;;;;;;5076309;28;20020;-35
2022/12/02 05:57:44;;;;;;;26.70;13.73;;;5.30;80.80;;;;;;5076168;28;20055;-35
2022/12/02 06:00:16;;;;;;;28.92;12.82;;;5.20;81.00;;;;;;5076544;28;20028;-34
2022/12/02 06:03:04;;;;;;;23.15;11.48;;;5.30;81.30;;;;;;5076085;28;20044;-35
2022/12/02 06:05:40;;;;;;;23.50;12.30;;;5.30;81.30;;;;;;5075826;28;20033;-33
2022/12/02 06:08:29;;;;;;;24.52;12.40;;;5.30;81.30;;;;;;5058002;28;20021;-32
2022/12/02 06:11:10;;;;;;;27.83;13.25;;;5.30;81.30;;;;;;5076025;28;20036;-33
2022/12/02 06:13:37;;;;;;;25.00;11.57;;;5.30;81.20;;;;;;5075790;28;20079;-34
2022/12/02 06:16:10;;;;;;;35.30;15.35;;;5.30;81.20;;;;;;5075884;28;20052;-34
2022/12/02 06:18:38;;;;;;;28.38;13.02;;;5.20;81.10;;;;;;5075660;28;20037;-34
2022/12/02 06:21:13;;;;;;;26.25;13.05;;;5.20;81.50;;;;;;5075734;28;20397;-33
2022/12/02 06:23:44;;;;;;;27.23;13.07;;;5.20;81.60;;;;;;5075757;28;20070;-34
2022/12/02 06:26:13;;;;;;;27.20;13.40;;;5.20;81.60;;;;;;5075579;28;20035;-34
2022/12/02 06:28:43;;;;;;;27.98;13.63;;;5.10;81.60;;;;;;5057487;28;20074;-33
2022/12/02 06:31:30;;;;;;;27.27;13.07;;;5.10;81.60;;;;;;5075472;28;20048;-33
2022/12/02 06:33:59;;;;;;;27.92;12.95;;;5.10;81.80;;;;;;5057650;28;20082;-34
2022/12/02 06:36:29;;;;;;;29.48;13.85;;;5.00;81.90;;;;;;5075261;28;20158;-35
2022/12/02 06:38:58;;;;;;;25.80;13.27;;;5.00;81.80;;;;;;5075397;28;20075;-35
2022/12/02 06:41:28;;;;;;;25.65;13.07;;;5.00;81.90;;;;;;5075323;28;20029;-36
2022/12/02 06:46:51;;;;;;;25.85;13.25;;;5.00;82.20;;;;;;5075572;28;20044;-35
2022/12/02 06:49:22;;;;;;;27.27;13.60;;;5.00;82.10;;;;;;5075280;28;20037;-34
2022/12/02 06:51:54;;;;;;;23.27;13.07;;;5.00;82.10;;;;;;5075091;28;20041;-37
2022/12/02 06:54:22;;;;;;;25.80;12.40;;;5.00;82.20;;;;;;5075226;28;20062;-35
2022/12/02 06:56:49;;;;;;;24.67;12.50;;;5.00;82.10;;;;;;5075293;28;20039;-34
2022/12/02 06:59:20;;;;;;;23.98;12.18;;;5.00;82.10;;;;;;5075241;28;20028;-34
2022/12/02 07:01:45;;;;;;;25.65;13.07;;;5.00;82.20;;;;;;5075245;28;20032;-34
2022/12/02 07:04:20;;;;;;;25.98;12.80;;;5.00;82.20;;;;;;5074322;28;20462;-35
2022/12/02 07:06:50;;;;;;;25.40;12.95;;;4.90;82.20;;;;;;5074754;28;20024;-34
2022/12/02 07:09:20;;;;;;;25.48;12.68;;;5.00;82.30;;;;;;5074995;28;20518;-35
2022/12/02 07:11:49;;;;;;;25.85;13.45;;;4.90;82.30;;;;;;5074789;28;20032;-33
2022/12/02 07:14:26;;;;;;;28.05;12.95;;;4.90;82.40;;;;;;5074639;28;20040;-34
2022/12/02 07:16:55;;;;;;;25.98;12.93;;;4.90;82.50;;;;;;5074965;28;20400;-36
2022/12/02 07:19:37;;;;;;;26.80;13.13;;;4.90;82.60;;;;;;5074745;28;20028;-35
2022/12/02 07:22:19;;;;;;;25.70;13.65;;;4.90;82.70;;;;;;5074584;28;20094;-35
2022/12/02 07:24:54;;;;;;;27.65;13.73;;;4.90;82.80;;;;;;5075022;28;20111;-36
2022/12/02 07:27:27;;;;;;;28.08;14.50;;;4.80;82.80;;;;;;5074566;28;20100;-33
2022/12/02 07:29:56;;;;;;;26.20;12.98;;;4.90;83.00;;;;;;5074562;28;20028;-34
2022/12/02 07:32:22;;;;;;;28.88;13.48;;;4.90;83.10;;;;;;5074541;28;20103;-34
2022/12/02 07:34:47;;;;;;;28.50;13.50;;;4.90;83.10;;;;;;5074495;28;20079;-34
2022/12/02 07:37:13;;;;;;;25.30;12.60;;;4.80;83.10;;;;;;5074494;28;20063;-34
2022/12/02 07:39:39;;;;;;;24.02;12.13;;;4.90;83.20;;;;;;5074302;28;20029;-34
2022/12/02 07:42:05;;;;;;;26.85;12.57;;;4.80;83.20;;;;;;5074594;28;20074;-33
2022/12/02 07:44:30;;;;;;;25.45;12.50;;;4.90;83.30;;;;;;5074418;28;20039;-35
2022/12/02 07:46:56;;;;;;;29.85;13.32;;;4.90;83.20;;;;;;5074189;28;20032;-34
2022/12/02 07:49:21;;;;;;;26.35;13.00;;;4.80;83.90;;;;;;5073989;28;20029;-38
2022/12/02 07:51:47;;;;;;;29.98;13.20;;;4.80;83.30;;;;;;5074170;28;20040;-34
2022/12/02 07:54:13;;;;;;;24.98;12.60;;;4.80;83.40;;;;;;5074273;28;20025;-35
2022/12/02 07:56:39;;;;;;;34.20;13.73;;;4.80;83.50;;;;;;5073781;28;20032;-34
2022/12/02 07:59:04;;;;;;;28.52;13.77;;;4.80;83.50;;;;;;5073871;28;20029;-35
2022/12/02 08:01:30;;;;;;;30.10;13.27;;;4.80;83.50;;;;;;5073978;28;20021;-34
2022/12/02 08:03:56;;;;;;;30.63;13.15;;;4.80;83.70;;;;;;5073951;28;20073;-37
2022/12/02 08:06:21;;;;;;;27.45;13.50;;;4.70;83.80;;;;;;5073769;28;20148;-35
2022/12/02 08:08:47;;;;;;;31.48;14.43;;;4.70;84.00;;;;;;5073972;28;20033;-35
2022/12/02 08:11:12;;;;;;;33.65;14.55;;;4.70;83.90;;;;;;5073732;28;20040;-36
2022/12/02 08:13:38;;;;;;;26.65;13.05;;;4.60;84.00;;;;;;5073586;28;20048;-34
2022/12/02 08:16:04;;;;;;;30.58;13.55;;;4.70;84.20;;;;;;5072893;28;20093;-37
2022/12/02 08:18:29;;;;;;;32.97;13.60;;;4.70;84.10;;;;;;5073659;28;20033;-35
2022/12/02 08:20:55;;;;;;;26.77;12.68;;;4.70;84.10;;;;;;5055623;28;20112;-35
2022/12/02 08:23:20;;;;;;;25.67;12.13;;;4.70;84.20;;;;;;5073445;28;20031;-34
2022/12/02 08:25:46;;;;;;;27.08;13.25;;;4.70;84.20;;;;;;5073487;28;20070;-33
2022/12/02 08:28:13;;;;;;;28.50;12.82;;;4.80;84.20;;;;;;5073334;28;20028;-35
2022/12/02 08:30:39;;;;;;;25.95;11.95;;;4.80;84.10;;;;;;5073459;28;20032;-34
2022/12/02 08:33:05;;;;;;;32.28;13.40;;;4.80;84.10;;;;;;5055451;28;20041;-34
2022/12/02 08:35:30;;;;;;;33.92;15.07;;;4.90;84.10;;;;;;5073330;28;20067;-34
2022/12/02 08:37:56;;;;;;;28.40;12.75;;;4.80;84.00;;;;;;5073254;28;20525;-34
2022/12/02 08:40:22;;;;;;;29.42;13.13;;;4.90;84.00;;;;;;5073169;28;20021;-37
2022/12/02 08:42:47;;;;;;;30.92;14.23;;;4.80;84.10;;;;;;5073253;28;20028;-35
2022/12/02 08:45:13;;;;;;;32.10;14.25;;;4.80;84.00;;;;;;5073150;28;20478;-35
2022/12/02 08:47:39;;;;;;;30.67;13.88;;;4.80;84.20;;;;;;5055072;28;20040;-36
2022/12/02 08:50:05;;;;;;;29.83;13.93;;;4.80;84.10;;;;;;5073012;28;20082;-35
2022/12/02 08:52:31;;;;;;;33.45;14.38;;;4.80;84.10;;;;;;5073032;28;20464;-36
2022/12/02 08:54:57;;;;;;;27.23;13.27;;;4.80;84.00;;;;;;5073180;28;20031;-34
2022/12/02 08:57:23;;;;;;;35.30;14.48;;;4.80;84.00;;;;;;5073075;28;20116;-36
2022/12/02 08:59:49;;;;;;;28.17;13.70;;;4.80;84.20;;;;;;5072711;28;20024;-35
2022/12/02 09:02:15;;;;;;;34.67;14.80;;;4.80;84.20;;;;;;5072787;28;20680;-36
2022/12/02 09:04:40;;;;;;;32.22;14.95;;;4.80;84.10;;;;;;5072716;28;20502;-35
2022/12/02 09:07:06;;;;;;;33.42;14.10;;;4.80;84.10;;;;;;5072762;28;20043;-34
2022/12/02 09:09:32;;;;;;;32.00;14.00;;;4.80;84.10;;;;;;5072875;28;20071;-37
2022/12/02 09:11:57;;;;;;;30.67;13.98;;;4.80;84.00;;;;;;5072921;28;20052;-33
2022/12/02 09:14:23;;;;;;;30.27;13.25;;;4.90;84.10;;;;;;5072549;28;20500;-36
2022/12/02 09:16:49;;;;;;;31.17;13.73;;;4.90;84.10;;;;;;5072405;28;20028;-34
2022/12/02 09:19:15;;;;;;;29.15;13.48;;;4.90;83.90;;;;;;5072737;28;20029;-35
2022/12/02 09:21:40;;;;;;;32.05;13.77;;;4.90;83.90;;;;;;5072615;28;20143;-36
2022/12/02 09:24:06;;;;;;;32.50;13.70;;;4.90;83.80;;;;;;5054460;28;20074;-35
2022/12/02 09:26:33;;;;;;;34.45;14.57;;;5.00;83.80;;;;;;5072498;28;20028;-35
2022/12/02 09:28:58;;;;;;;30.42;14.23;;;5.00;83.70;;;;;;5072377;28;20078;-35
2022/12/02 09:31:24;;;;;;;31.48;12.85;;;5.00;83.70;;;;;;5072334;28;20032;-36
2022/12/02 09:33:49;;;;;;;32.17;13.40;;;5.00;83.70;;;;;;5054456;28;20035;-34
2022/12/02 09:36:15;;;;;;;30.98;13.48;;;5.10;83.70;;;;;;5072136;28;20028;-35
2022/12/02 09:38:40;;;;;;;29.80;13.15;;;5.10;83.50;;;;;;5071949;28;20033;-35
2022/12/02 09:41:06;;;;;;;33.45;14.57;;;5.10;83.60;;;;;;5072082;28;20099;-34
2022/12/02 09:43:32;;;;;;;28.83;13.73;;;5.10;83.30;;;;;;5072175;28;20094;-34
2022/12/02 09:45:59;;;;;;;31.95;15.30;;;5.10;83.90;;;;;;5072297;28;20021;-33
2022/12/02 09:48:25;;;;;;;26.63;12.65;;;5.10;82.90;;;;;;5072239;28;20024;-36
2022/12/02 09:50:52;;;;;;;33.95;13.05;;;5.10;83.20;;;;;;5072258;28;20396;-34
2022/12/02 09:53:18;;;;;;;29.42;13.48;;;5.10;83.20;;;;;;5072225;28;20669;-35
2022/12/02 09:55:44;;;;;;;31.45;13.70;;;5.20;83.20;;;;;;5072369;28;20077;-36
2022/12/02 09:58:15;;;;;;;27.05;12.95;;;5.20;82.90;;;;;;5071880;28;20480;-35
2022/12/02 10:00:40;;;;;;;27.83;13.05;;;5.20;83.00;;;;;;5072028;28;20032;-35
2022/12/02 10:03:07;;;;;;;28.08;12.82;;;5.30;83.00;;;;;;5053840;28;20024;-34
2022/12/02 10:05:33;;;;;;;30.45;13.27;;;5.30;82.90;;;;;;5072158;28;20534;-35
2022/12/02 10:07:59;;;;;;;31.70;14.18;;;5.40;82.80;;;;;;5072118;28;20024;-35
2022/12/02 10:10:28;;;;;;;30.23;13.93;;;5.30;82.40;;;;;;5072055;28;20033;-35
2022/12/02 10:12:54;;;;;;;33.63;14.55;;;5.30;82.70;;;;;;5071731;28;20044;-35
2022/12/02 10:15:26;;;;;;;29.83;14.05;;;5.30;82.50;;;;;;5071872;28;20437;-34
2022/12/02 10:17:52;;;;;;;28.63;13.15;;;5.30;82.70;;;;;;5072047;28;20039;-34
2022/12/02 10:20:24;;;;;;;27.35;12.65;;;5.40;82.50;;;;;;5071926;28;20434;-34
2022/12/02 10:23:04;;;;;;;28.10;12.98;;;5.40;82.30;;;;;;5071880;28;20075;-34
2022/12/02 10:25:30;;;;;;;28.83;13.10;;;5.40;82.40;;;;;;5071657;28;20021;-36
2022/12/02 10:27:56;;;;;;;32.10;12.73;;;5.40;82.30;;;;;;5071909;28;20100;-35
2022/12/02 10:30:24;;;;;;;31.25;13.95;;;5.40;82.40;;;;;;5071922;28;20104;-34
2022/12/02 10:33:00;;;;;;;29.42;12.23;;;5.40;82.00;;;;;;5071808;28;20054;-34
2022/12/02 10:35:28;;;;;;;28.45;11.63;;;5.40;82.30;;;;;;5071886;28;20111;-34
2022/12/02 10:37:53;;;;;;;23.50;10.27;;;5.40;82.50;;;;;;5071919;28;20040;-34
2022/12/02 10:40:21;;;;;;;33.35;13.45;;;5.40;83.00;;;;;;5075722;28;20029;-34
2022/12/02 10:43:07;;;;;;;29.92;13.00;;;5.40;82.50;;;;;;5057487;28;20025;-34
2022/12/02 10:45:33;;;;;;;30.17;12.90;;;5.40;82.60;;;;;;5075352;28;20111;-37
2022/12/02 10:48:15;;;;;;;33.88;13.55;;;5.30;82.40;;;;;;5075321;28;20100;-33
2022/12/02 10:50:40;;;;;;;32.72;12.85;;;5.30;82.40;;;;;;5075057;28;20086;-32
2022/12/02 10:53:16;;;;;;;26.95;12.57;;;5.20;82.40;;;;;;5075102;28;20456;-35
2022/12/02 10:55:42;;;;;;;31.70;14.02;;;5.20;82.30;;;;;;5075178;28;20033;-34
2022/12/02 10:58:23;;;;;;;30.27;13.25;;;5.20;82.10;;;;;;5075208;28;20028;-35
2022/12/02 11:00:48;;;;;;;32.60;14.02;;;5.10;82.20;;;;;;5057172;28;20029;-34
2022/12/02 11:03:14;;;;;;;28.45;11.82;;;5.10;82.30;;;;;;5074963;28;20085;-39
2022/12/02 11:05:40;;;;;;;29.25;11.70;;;5.10;82.40;;;;;;5074970;28;20021;-34
2022/12/02 11:08:15;;;;;;;29.42;11.77;;;5.10;82.30;;;;;;5056893;28;20054;-35
2022/12/02 11:10:43;;;;;;;31.20;12.88;;;5.10;82.30;;;;;;5074871;28;20052;-33
2022/12/02 11:13:12;;;;;;;28.88;12.32;;;5.10;82.10;;;;;;5056534;28;20040;-34
2022/12/02 11:16:24;;;;;;;28.00;11.30;;;5.10;82.10;;;;;;5074856;28;20065;-34
2022/12/02 11:18:54;;;;;;;30.73;12.68;;;5.10;82.40;;;;;;5050215;28;20061;-34
2022/12/02 11:21:28;;;;;;;32.63;14.02;;;5.10;81.40;;;;;;5074574;28;20028;-33
2022/12/02 11:24:22;;;;;;;33.85;14.45;;;5.00;81.00;;;;;;5074852;28;20078;-35
2022/12/02 11:27:02;;;;;;;32.75;12.75;;;4.90;80.80;;;;;;5074723;28;20024;-34
2022/12/02 11:30:01;;;;;;;32.13;14.02;;;4.90;81.30;;;;;;5075750;28;20070;-36
2022/12/02 11:32:27;;;;;;;28.45;12.20;;;4.90;81.30;;;;;;5074276;28;20029;-32
2022/12/02 11:34:55;;;;;;;31.67;12.15;;;4.90;81.40;;;;;;5074474;28;20108;-27
2022/12/02 11:37:26;;;;;;;35.88;13.80;;;5.00;81.20;;;;;;5074467;28;20028;-37
2022/12/02 11:39:57;;;;;;;29.58;12.73;;;5.00;81.00;;;;;;5074315;28;20692;-28
2022/12/02 11:42:26;;;;;;;28.05;12.00;;;4.90;80.90;;;;;;5056212;28;20074;-27
2022/12/02 11:44:53;;;;;;;29.10;12.13;;;5.00;81.00;;;;;;5074409;28;20025;-41
2022/12/02 11:47:26;;;;;;;29.45;11.68;;;5.00;81.20;;;;;;5074192;28;20016;-28
2022/12/02 11:49:52;;;;;;;29.13;11.27;;;5.00;81.00;;;;;;5073100;28;20056;-29
2022/12/02 11:52:21;;;;;;;31.30;12.85;;;5.00;81.20;;;;;;5073909;28;20085;-28
2022/12/02 11:55:16;;;;;;;30.73;13.25;;;5.00;80.90;;;;;;5074095;28;20021;-29
2022/12/02 11:57:51;;;;;;;32.30;12.68;;;5.00;81.20;;;;;;5073995;28;20025;-28
2022/12/02 12:00:21;;;;;;;34.10;13.85;;;5.00;81.00;;;;;;5073902;28;20504;-31
2022/12/02 12:03:03;;;;;;;33.88;13.38;;;5.00;80.80;;;;;;5073798;28;20083;-33
2022/12/02 12:05:29;;;;;;;29.77;13.32;;;5.10;80.90;;;;;;5073868;28;20062;-30
2022/12/02 12:07:54;;;;;;;32.55;12.90;;;5.00;80.60;;;;;;5073955;28;20058;-29
2022/12/02 12:10:36;;;;;;;27.65;11.75;;;5.10;80.80;;;;;;5073773;28;20037;-31
2022/12/02 12:13:18;;;;;;;25.50;10.55;;;5.10;80.70;;;;;;5073437;28;20072;-30
2022/12/02 12:15:58;;;;;;;26.60;10.75;;;5.20;80.90;;;;;;5073795;28;20068;-29
2022/12/02 12:18:44;;;;;;;28.95;11.05;;;5.30;81.40;;;;;;5073674;28;20052;-34
2022/12/02 12:21:10;;;;;;;30.15;11.52;;;5.30;80.60;;;;;;5082522;28;20074;-46
2022/12/02 12:23:44;;;;;;;27.27;10.60;;;5.40;80.50;;;;;;5073539;28;20039;-47
2022/12/02 12:26:32;;;;;;;24.67;10.48;;;5.40;80.40;;;;;;5073406;28;20036;-38
2022/12/02 12:29:05;;;;;;;23.05;10.77;;;5.50;80.50;;;;;;5055405;28;20051;-41
2022/12/02 12:31:30;;;;;;;23.90;9.97;;;5.50;80.50;;;;;;5073275;28;20531;-44
2022/12/02 12:33:56;;;;;;;21.58;10.15;;;5.60;80.50;;;;;;5055259;28;20090;-46
2022/12/02 12:36:22;;;;;;;31.60;11.45;;;5.60;80.30;;;;;;5073091;28;20020;-43
2022/12/02 12:38:47;;;;;;;26.30;11.00;;;5.60;80.00;;;;;;5073147;28;20361;-41
2022/12/02 12:41:13;;;;;;;23.95;9.90;;;5.60;80.10;;;;;;5073261;28;20032;-33
2022/12/02 12:43:39;;;;;;;22.98;10.05;;;5.60;80.10;;;;;;5073288;28;20020;-34
2022/12/02 12:46:04;;;;;;;25.35;10.30;;;5.60;80.10;;;;;;5073055;28;20031;-34
2022/12/02 12:48:30;;;;;;;26.30;11.38;;;5.60;79.80;;;;;;5073057;28;20636;-35